Time;durP1;ratioP1;P1;durP2;ratioP2;P2;SDS_P1;SDS_P2;PMS_P1;PMS_P2;Temp;Humidity;BMP_temperature;BMP_pressure;BME280_temperature;BME280_humidity;BME280_pressure;Samples;Min_cycle;Max_cycle;Signal;HPM_P1;HPM_P2
2022/12/16 00:02:28;;;;;;;;;26.00;25.00;;;;;-2.03;67.58;99847.50;4981374;28;45619;-91
2022/12/16 00:04:56;;;;;;;;;31.25;28.00;;;;;-2.56;67.09;99755.84;4985077;28;47502;-91
2022/12/16 00:07:22;;;;;;;;;36.50;35.00;;;;;-1.96;66.92;99880.41;4986025;28;46293;-91
2022/12/16 00:09:50;;;;;;;;;30.25;26.75;;;;;-0.31;67.16;100150.66;4985679;28;44808;-91
2022/12/16 00:12:22;;;;;;;;;25.00;24.75;;;;;-1.20;67.57;100004.59;4981397;28;44803;-91
2022/12/16 00:14:50;;;;;;;;;34.00;27.50;;;;;-0.32;67.84;100159.28;4976107;28;47151;-90
2022/12/16 00:17:19;;;;;;;;;38.25;29.00;;;;;-0.41;67.47;100175.59;4987127;28;45449;-90
2022/12/16 00:19:45;;;;;;;;;34.00;30.00;;;;;-1.26;67.07;100000.16;4983810;28;45376;-91
2022/12/16 00:22:13;;;;;;;;;37.50;33.00;;;;;-2.07;67.29;99898.34;4966632;28;45271;-90
2022/12/16 00:24:39;;;;;;;;;31.00;26.00;;;;;-1.37;67.72;100012.03;4961234;28;46635;-90
2022/12/16 00:27:08;;;;;;;;;29.25;27.50;;;;;-0.38;67.72;100186.06;4960735;28;45359;-92
2022/12/16 00:29:38;;;;;;;;;28.25;26.00;;;;;-0.36;67.63;100183.47;4963490;28;45337;-91
2022/12/16 00:32:10;;;;;;;;;31.75;26.00;;;;;-2.16;67.27;99898.16;4952766;28;45651;-90
2022/12/16 00:34:59;;;;;;;;;35.00;31.75;;;;;-0.38;67.48;100183.47;4970966;28;46639;-91
2022/12/16 00:37:28;;;;;;;;;36.75;29.75;;;;;-0.36;67.92;100206.84;4987490;28;45417;-91
2022/12/16 00:39:56;;;;;;;;;34.50;27.25;;;;;-1.98;67.57;99919.25;4983853;28;45546;-91
2022/12/16 00:42:24;;;;;;;;;29.75;26.50;;;;;-1.75;67.37;99952.53;4978047;28;45563;-92
2022/12/16 00:44:53;;;;;;;;;35.75;30.00;;;;;-1.74;67.52;99958.59;4982309;28;46720;-91
2022/12/16 00:47:24;;;;;;;;;31.00;27.75;;;;;-2.67;67.63;99806.50;4985147;28;45318;-91
2022/12/16 00:50:03;;;;;;;;;;;;;;;;;;;;;
2022/12/16 00:52:32;;;;;;;;;35.75;35.75;;;;;-1.37;67.64;100048.31;4983285;28;70438;-92
2022/12/16 00:54:59;;;;;;;;;39.25;35.00;;;;;-0.42;67.67;100205.00;4969850;28;47127;-90
2022/12/16 00:57:24;;;;;;;;;48.25;36.00;;;;;-2.91;67.35;99765.47;4988259;28;44787;-89
2022/12/16 00:59:50;;;;;;;;;36.75;31.50;;;;;-0.43;67.98;100198.06;4981579;28;44833;-90
2022/12/16 01:02:15;;;;;;;;;30.00;25.25;;;;;-2.07;67.48;99913.88;4979959;28;45378;-90
2022/12/16 01:04:41;;;;;;;;;35.75;30.50;;;;;-1.46;68.12;100030.00;4978507;28;48023;-90
2022/12/16 01:07:10;;;;;;;;;35.75;32.25;;;;;-0.45;67.81;100193.69;4994741;28;45607;-91
2022/12/16 01:09:36;;;;;;;;;43.50;39.25;;;;;-1.84;67.79;99965.31;4964802;28;45208;-90
2022/12/16 01:12:02;;;;;;;;;43.50;36.75;;;;;-1.70;68.17;100013.13;4996926;28;45655;-91
2022/12/16 01:14:27;;;;;;;;;38.00;38.00;;;;;-0.86;68.16;100149.66;4959273;28;47072;-91
2022/12/16 01:16:53;;;;;;;;;36.75;33.50;;;;;-1.29;68.02;100096.06;4996717;28;45458;-92
2022/12/16 01:19:20;;;;;;;;;34.75;33.00;;;;;-1.86;68.08;99980.81;4977773;28;45210;-91
2022/12/16 01:21:48;;;;;;;;;53.25;42.50;;;;;-2.43;68.14;99896.75;4991385;28;45572;-92
2022/12/16 01:24:24;;;;;;;;;43.00;36.50;;;;;-1.92;68.08;99985.00;4982174;28;47311;-91
2022/12/16 01:26:52;;;;;;;;;39.75;37.75;;;;;-0.49;67.86;100234.31;4983985;28;45422;-91
2022/12/16 01:29:17;;;;;;;;;36.75;35.00;;;;;-0.49;68.29;100229.09;4986092;28;45171;-92
2022/12/16 01:31:54;;;;;;;;;34.00;31.00;;;;;-1.88;67.92;100002.34;4994535;28;45236;-91
2022/12/16 01:34:22;;;;;;;;;39.50;32.00;;;;;-2.25;68.04;99949.75;4982748;28;48008;-90
2022/12/16 01:36:50;;;;;;;;;41.50;38.50;;;;;-0.52;68.37;100259.34;4991619;28;45405;-91
2022/12/16 01:39:20;;;;;;;;;35.25;32.25;;;;;-1.67;68.55;100054.66;4989108;28;45302;-91
2022/12/16 01:41:50;;;;;;;;;38.25;31.00;;;;;-0.52;67.87;100280.13;4970442;28;44853;-90
2022/12/16 01:44:21;;;;;;;;;35.50;31.75;;;;;-1.04;68.26;100165.72;4979029;28;46711;-90
2022/12/16 01:47:02;;;;;;;;;43.25;36.00;;;;;-1.84;68.32;100050.81;4973759;28;44915;-91
2022/12/16 01:49:37;;;;;;;;;35.00;31.00;;;;;-1.80;68.33;100057.81;4972097;28;45262;-91
2022/12/16 01:52:06;;;;;;;;;33.25;31.25;;;;;-1.86;67.95;100055.09;4950504;28;45436;-90
2022/12/16 01:54:43;;;;;;;;;37.75;28.75;;;;;-1.44;68.30;100121.66;4985785;28;45640;-91
2022/12/16 01:57:14;;;;;;;;;45.75;38.75;;;;;-1.46;68.25;100123.34;4980991;28;45427;-91
2022/12/16 01:59:44;;;;;;;;;42.50;34.75;;;;;-1.94;68.55;100054.03;4981862;28;45376;-90
2022/12/16 02:02:15;;;;;;;;;34.25;32.50;;;;;-0.58;68.68;100296.44;4968342;28;45223;-90
2022/12/16 02:05:23;;;;;;;;;33.75;31.75;;;;;-2.08;68.23;100048.53;4964500;28;45554;-90
2022/12/16 02:07:32;;;;;;;;;33.75;31.75;;;;;-1.10;68.62;100208.84;4964214;28;45241;-92
2022/12/16 02:09:59;;;;;;;;;40.50;35.00;;;;;-2.27;68.35;100018.78;4966300;28;45466;-90
2022/12/16 02:12:49;;;;;;;;;31.00;27.25;;;;;-1.05;68.38;100231.41;4961469;28;45483;-91
2022/12/16 02:15:47;;;;;;;;;36.75;35.25;;;;;-0.60;68.18;100296.41;4969616;28;46346;-91
2022/12/16 02:18:29;;;;;;;;;35.75;34.75;;;;;-0.62;68.23;100295.50;4970105;28;45286;-92
2022/12/16 02:21:37;;;;;;;;;36.00;36.00;;;;;-0.62;68.39;100292.91;4982725;28;45520;-92
2022/12/16 02:24:38;;;;;;;;;32.25;29.50;;;;;-0.63;68.54;100287.69;4971175;28;45368;-91
2022/12/16 02:27:39;;;;;;;;;33.50;30.50;;;;;-1.68;68.03;100115.09;4965209;28;47217;-92
2022/12/16 02:30:20;;;;;;;;;33.25;31.50;;;;;-1.39;68.28;100163.25;4978543;28;46194;-91
2022/12/16 02:33:09;;;;;;;;;41.00;31.00;;;;;-1.42;68.44;100153.69;4966597;28;45237;-91
2022/12/16 02:35:45;;;;;;;;;42.00;36.50;;;;;-0.66;68.35;100298.88;4965168;28;45485;-92
2022/12/16 02:38:22;;;;;;;;;30.75;28.50;;;;;-1.63;68.32;100128.16;4963410;28;47448;-92
2022/12/16 02:40:47;;;;;;;;;39.00;32.00;;;;;-1.55;68.68;100143.88;4971077;28;45350;-91
2022/12/16 02:43:40;;;;;;;;;41.75;35.75;;;;;-1.16;69.00;100197.47;4975635;28;44949;-92
2022/12/16 02:46:07;;;;;;;;;35.50;29.00;;;;;-0.65;68.68;100291.94;4990204;28;45283;-89
2022/12/16 02:48:34;;;;;;;;;33.00;27.75;;;;;-1.96;68.31;100077.31;4986194;28;46304;-91
2022/12/16 02:50:59;;;;;;;;;33.00;31.00;;;;;-2.10;68.73;100058.88;4981840;28;45243;-90
2022/12/16 02:53:34;;;;;;;;;25.50;24.75;;;;;-2.12;68.70;100057.97;4989408;28;45333;-91
2022/12/16 02:56:11;;;;;;;;;39.00;32.00;;;;;-1.35;68.52;100178.03;4987068;28;45514;-91
2022/12/16 02:58:48;;;;;;;;;37.50;34.50;;;;;-0.70;68.62;100291.00;4972555;28;46868;-92
2022/12/16 03:01:42;;;;;;;;;39.75;32.50;;;;;-0.73;68.50;100296.97;4966959;28;45576;-90
2022/12/16 03:04:47;;;;;;;;;38.50;36.00;;;;;-1.50;68.87;100181.16;4963540;28;45313;-91
2022/12/16 03:07:16;;;;;;;;;41.00;39.25;;;;;-0.95;68.95;100265.38;4943002;28;45618;-91
2022/12/16 03:09:45;;;;;;;;;39.00;34.00;;;;;-1.47;68.41;100183.84;4945114;28;47262;-91
2022/12/16 03:12:14;;;;;;;;;42.25;36.50;;;;;-2.99;68.55;99915.31;4961427;28;45279;-91
2022/12/16 03:14:44;;;;;;;;;39.00;32.00;;;;;-1.13;68.93;100231.25;4966968;28;45408;-91
2022/12/16 03:17:12;;;;;;;;;40.50;33.00;;;;;-0.70;68.69;100323.00;4967022;28;45327;-92
2022/12/16 03:19:42;;;;;;;;;39.75;33.50;;;;;-0.70;68.79;100315.22;4949862;28;47621;-91
2022/12/16 03:22:13;;;;;;;;;30.50;28.75;;;;;-2.32;68.72;100053.19;4948660;28;45344;-91
2022/12/16 03:24:39;;;;;;;;;41.25;34.00;;;;;-1.51;68.63;100182.00;4946464;28;45287;-92
2022/12/16 03:27:32;;;;;;;;;39.25;34.25;;;;;-0.87;68.64;100311.41;4935236;28;45875;-91
2022/12/16 03:30:08;;;;;;;;;33.75;25.50;;;;;-1.46;68.06;100183.88;4957211;28;47201;-92
2022/12/16 03:32:58;;;;;;;;;32.50;30.75;;;;;-2.71;68.31;99975.47;4949318;28;45731;-90
2022/12/16 03:35:30;;;;;;;;;40.25;34.50;;;;;-2.15;68.79;100079.47;4943855;28;45451;-91
2022/12/16 03:37:59;;;;;;;;;46.25;38.25;;;;;-2.45;68.58;100040.78;4949367;28;45283;-90
2022/12/16 03:40:28;;;;;;;;;41.00;36.75;;;;;-3.16;68.77;99917.44;4972369;28;48045;-89
2022/12/16 03:42:56;;;;;;;;;37.75;36.25;;;;;-1.67;68.37;100168.69;4976679;28;45555;-91
2022/12/16 03:45:26;;;;;;;;;34.75;33.25;;;;;-2.60;68.26;100011.94;4975632;28;44911;-90
2022/12/16 03:47:58;;;;;;;;;44.00;36.00;;;;;-2.51;68.84;100044.09;4973244;28;44898;-91
2022/12/16 03:50:32;;;;;;;;;45.25;38.75;;;;;-2.15;68.64;100096.75;4971241;28;46253;-89
2022/12/16 03:52:58;;;;;;;;;44.50;39.25;;;;;-2.25;67.82;100074.03;4967532;28;45482;-90
2022/12/16 03:55:24;;;;;;;;;36.00;33.50;;;;;-1.91;68.60;100156.03;4968067;28;45345;-90
2022/12/16 03:57:50;;;;;;;;;45.50;41.25;;;;;-2.25;68.56;100102.53;4975184;28;45247;-92
2022/12/16 04:00:15;;;;;;;;;40.50;36.75;;;;;-1.59;68.50;100219.81;4982453;28;46993;-91
2022/12/16 04:02:41;;;;;;;;;50.25;37.00;;;;;-1.57;68.31;100205.19;4983630;28;45278;-92
2022/12/16 04:05:08;;;;;;;;;38.25;32.25;;;;;-2.06;68.64;100133.22;4980068;28;45429;-92
2022/12/16 04:07:33;;;;;;;;;41.25;36.00;;;;;-0.87;68.58;100339.94;4981180;28;45466;-91
2022/12/16 04:09:59;;;;;;;;;46.25;39.50;;;;;-2.24;68.53;100119.84;4964525;28;47012;-91
